• Join FlightAware (Why Join?)
  • Login
  • US Flag 
11:10PM EDT


 

Airport Tracker/Info


-or-


 

Live Flight TrackerFlight Track Log ✈ N901QS ✈ 05-Jun-2013 ✈ KTUL - KOKC

Flight Track Log - Related Links

Times and Time Zones

All times are in EDT time to prevent confusion due to time zone crossing. See the N901QS flight status page for this flight to view local times or setup timezone preferences in your user account.

Time Position Orientation Groundspeed Altitude Reporting Facility
EDT Latitude Longitude Course Direction KTS MPH feet Rate Location/Type
07:11PM 36.1944 -95.9022 262° West 168 193 1,500  Level Kansas City Center
07:12PM 36.1922 -95.9517 267° West 213 245 4,200 3,480 Climbing Kansas City Center
07:13PM 36.1864 -96.0044 262° West 230 265 6,600 3,480 Climbing Kansas City Center
07:13PM 36.1806 -96.0361 257° West 263 303 7,700 1,200 Climbing Kansas City Center
07:14PM 36.1722 -96.0944 260° West 258 297 7,900 60 Climbing Kansas City Center
07:15PM 36.1589 -96.1858 260° West 267 307 7,900  Level Kansas City Center
07:16PM 36.1458 -96.2733 260° West 261 300 7,900  Level Kansas City Center
07:17PM 36.1403 -96.1709 262° West  Level FlightAware Approximate
07:17PM 36.1308 -96.3761 260° West 255 293 7,900  Level Kansas City Center
07:18PM 36.1167 -96.4647 259° West 261 300 8,000  Climbing Kansas City Center
07:19PM 36.1039 -96.5558 260° West 266 306 8,000  Level Kansas City Center
07:20PM 36.0892 -96.6475 259° West 269 310 8,000  Level Kansas City Center
07:21PM 36.0739 -96.7450 259° West 273 314 8,000  Level Kansas City Center
07:22PM 36.0603 -96.8369 260° West 273 314 8,000  Level Kansas City Center
07:23PM 36.0461 -96.9294 259° West 275 316 8,000  Level Kansas City Center
07:24PM 36.0311 -97.0181 258° West 268 308 8,000  Level Kansas City Center
07:25PM 36.0153 -97.1233 259° West 263 303 8,000  Level Kansas City Center
07:26PM 35.9644 -97.1778 221° Southwest 253 291 8,000  Level Kansas City Center
07:27PM 35.9022 -97.2225 210° Southwest 258 297 8,000  Level Kansas City Center
07:28PM 35.8394 -97.2686 211° Southwest 262 302 8,000  Level Kansas City Center
07:29PM 35.7750 -97.3139 210° Southwest 266 306 8,000 -1,080 Level Kansas City Center
07:30PM 35.6983 -97.3686 210° Southwest 266 306 5,800 -1,920 Descending Kansas City Center
07:31PM 35.6333 -97.4153 210° Southwest 271 312 4,100 -1,200 Descending Kansas City Center
07:32PM 35.5961 -97.4417 210° Southwest 273 314 4,000  Descending Fort Worth Center
07:33PM 35.5125 -97.4800 200° South 256 295 4,100 -240 Climbing Fort Worth Center
07:34PM 35.4458 -97.5028 196° South 241 277 3,500 -780 Descending Fort Worth Center
07:35PM 35.4019 -97.5231 201° Southwest 241 277 2,800 -600 Descending Fort Worth Center
07:36PM 35.3456 -97.5511 202° Southwest 176 203 2,500 -300 Descending Fort Worth Center